createdAt,value
2022-08-03T00:02:27.569Z,99.90
2022-08-03T00:05:02.978Z,99.90
2022-08-03T00:07:32.736Z,99.90
2022-08-03T00:10:02.033Z,99.90
2022-08-03T00:12:36.651Z,99.90
2022-08-03T00:15:11.378Z,99.90
2022-08-03T00:17:52.860Z,99.90
2022-08-03T00:20:31.578Z,99.90
2022-08-03T00:23:04.681Z,99.90
2022-08-03T00:25:36.876Z,99.90
2022-08-03T00:28:13.202Z,99.90
2022-08-03T00:30:44.286Z,99.90
2022-08-03T00:33:14.403Z,99.90
2022-08-03T00:35:51.041Z,99.90
2022-08-03T00:38:26.807Z,99.90
2022-08-03T00:40:56.777Z,99.90
2022-08-03T00:43:28.458Z,99.90
2022-08-03T00:46:06.196Z,99.90
2022-08-03T00:48:40.590Z,99.90
2022-08-03T00:51:10.342Z,99.90
2022-08-03T00:53:45.745Z,99.90
2022-08-03T00:56:16.825Z,99.90
2022-08-03T00:58:47.472Z,99.90
2022-08-03T01:01:18.304Z,99.90
2022-08-03T01:03:47.798Z,99.90
2022-08-03T01:06:28.725Z,99.90
2022-08-03T01:09:23.443Z,99.90
2022-08-03T01:12:00.921Z,99.90
2022-08-03T01:14:40.137Z,99.90
2022-08-03T01:17:22.616Z,99.90
2022-08-03T01:20:02.575Z,99.90
2022-08-03T01:23:04.394Z,99.90
2022-08-03T01:25:44.631Z,99.90
2022-08-03T01:28:42.420Z,99.90
2022-08-03T01:31:15.067Z,99.90
2022-08-03T01:33:52.269Z,99.90
2022-08-03T01:36:26.524Z,99.90
2022-08-03T01:38:57.921Z,99.90
2022-08-03T01:41:34.276Z,99.90
2022-08-03T01:44:29.417Z,99.90
2022-08-03T01:47:07.164Z,99.90
2022-08-03T01:49:42.847Z,99.90
2022-08-03T01:52:17.166Z,99.90
2022-08-03T01:54:50.258Z,99.90
2022-08-03T01:57:23.979Z,99.90
2022-08-03T01:59:54.267Z,99.90
2022-08-03T02:02:34.430Z,99.90
2022-08-03T02:05:10.853Z,99.90
2022-08-03T02:07:48.990Z,99.90
2022-08-03T02:10:22.347Z,99.90
2022-08-03T02:13:06.953Z,99.90
2022-08-03T02:15:38.631Z,99.90
2022-08-03T02:18:12.114Z,99.90
2022-08-03T02:20:43.844Z,99.90
2022-08-03T02:23:13.919Z,99.90
2022-08-03T02:25:47.650Z,99.90
2022-08-03T02:28:26.218Z,99.90
2022-08-03T02:31:00.129Z,99.90
2022-08-03T02:33:34.885Z,99.90
2022-08-03T02:36:07.339Z,99.90
2022-08-03T02:38:42.021Z,99.90
2022-08-03T02:41:19.823Z,99.90
2022-08-03T02:44:06.011Z,99.90
2022-08-03T02:46:48.501Z,99.90
2022-08-03T02:49:41.111Z,99.90
2022-08-03T02:52:18.664Z,99.90
2022-08-03T02:54:56.559Z,99.90
2022-08-03T02:57:28.598Z,99.90
2022-08-03T03:00:01.848Z,99.90
2022-08-03T03:02:32.090Z,99.90
2022-08-03T03:05:55.790Z,99.90
2022-08-03T03:07:54.294Z,99.90
2022-08-03T03:10:25.022Z,99.90
2022-08-03T03:13:00.689Z,99.90
2022-08-03T03:15:32.963Z,99.90
2022-08-03T03:18:03.075Z,99.90
2022-08-03T03:20:36.105Z,99.90
2022-08-03T03:23:09.070Z,99.90
2022-08-03T03:25:41.706Z,99.90
2022-08-03T03:28:12.310Z,99.90
2022-08-03T03:30:45.317Z,99.90
2022-08-03T03:33:22.530Z,99.90
2022-08-03T03:35:57.693Z,99.90
2022-08-03T03:38:29.744Z,99.90
2022-08-03T03:40:59.263Z,99.90
2022-08-03T03:43:29.860Z,99.90
2022-08-03T03:45:59.856Z,99.90
2022-08-03T03:48:29.739Z,99.90
2022-08-03T03:51:05.978Z,99.90
2022-08-03T03:53:35.499Z,99.90
2022-08-03T03:56:06.941Z,99.90
2022-08-03T03:58:37.909Z,99.90
2022-08-03T04:01:09.170Z,99.90
2022-08-03T04:03:39.952Z,99.90
2022-08-03T04:06:33.644Z,99.90
2022-08-03T04:09:20.392Z,99.90
2022-08-03T04:11:57.600Z,99.90
2022-08-03T04:14:30.358Z,99.90
2022-08-03T04:17:05.765Z,99.90
2022-08-03T04:19:40.209Z,99.90
2022-08-03T04:22:17.102Z,99.90
2022-08-03T04:24:51.493Z,99.90
2022-08-03T04:27:25.113Z,99.90
2022-08-03T04:29:58.101Z,99.90
2022-08-03T04:32:29.080Z,99.90
2022-08-03T04:35:01.587Z,99.90
2022-08-03T04:37:40.712Z,99.90
2022-08-03T04:40:15.395Z,99.90
2022-08-03T04:42:48.632Z,99.90
2022-08-03T04:45:23.919Z,99.90
2022-08-03T04:48:00.038Z,99.90
2022-08-03T04:50:35.199Z,99.90
2022-08-03T04:53:07.482Z,99.90
2022-08-03T04:55:44.453Z,99.90
2022-08-03T04:58:14.333Z,99.90
2022-08-03T05:00:45.843Z,99.90
2022-08-03T05:03:20.297Z,99.90
2022-08-03T05:06:01.894Z,99.90
2022-08-03T05:08:46.047Z,99.90
2022-08-03T05:11:20.342Z,99.90
2022-08-03T05:13:49.871Z,99.90
2022-08-03T05:16:24.195Z,99.90
2022-08-03T05:18:53.710Z,99.90
2022-08-03T05:21:51.996Z,99.90
2022-08-03T05:24:26.240Z,99.90
2022-08-03T05:26:58.164Z,99.90
2022-08-03T05:29:27.686Z,99.90
2022-08-03T05:32:04.882Z,99.90
2022-08-03T05:34:40.888Z,99.90
2022-08-03T05:37:10.651Z,99.90
2022-08-03T05:39:42.577Z,99.90
2022-08-03T05:42:18.025Z,99.90
2022-08-03T05:44:47.551Z,99.90
2022-08-03T05:47:19.345Z,99.90
2022-08-03T05:49:55.790Z,99.90
2022-08-03T05:52:25.276Z,99.90
2022-08-03T05:54:57.820Z,99.90
2022-08-03T05:57:29.290Z,99.90
2022-08-03T05:59:58.975Z,99.90
2022-08-03T06:02:29.761Z,99.90
2022-08-03T06:04:58.923Z,99.90
2022-08-03T06:07:29.826Z,99.90
2022-08-03T06:10:36.726Z,99.90
2022-08-03T06:13:04.816Z,99.90
2022-08-03T06:15:35.688Z,99.90
2022-08-03T06:18:05.329Z,99.90
2022-08-03T06:20:42.814Z,99.90
2022-08-03T06:23:17.661Z,99.90
2022-08-03T06:25:50.910Z,99.90
2022-08-03T06:28:52.406Z,99.90
2022-08-03T06:31:20.198Z,99.90
2022-08-03T06:34:32.576Z,99.90
2022-08-03T06:36:44.922Z,99.90
2022-08-03T06:39:17.982Z,99.90
2022-08-03T06:41:48.903Z,99.90
2022-08-03T06:44:21.544Z,99.90
2022-08-03T06:46:51.646Z,99.90
2022-08-03T06:49:21.119Z,99.90
2022-08-03T06:52:05.110Z,99.90
2022-08-03T06:54:38.940Z,99.90
2022-08-03T06:57:13.391Z,99.90
2022-08-03T07:00:07.919Z,99.90
2022-08-03T07:02:45.071Z,99.90
2022-08-03T07:05:15.069Z,99.90
2022-08-03T07:07:56.950Z,99.90
2022-08-03T07:10:29.969Z,99.90
2022-08-03T07:13:00.800Z,99.90
2022-08-03T07:15:54.343Z,99.90
2022-08-03T07:18:29.175Z,99.90
2022-08-03T07:21:03.562Z,99.90
2022-08-03T07:23:32.976Z,99.90
2022-08-03T07:26:03.450Z,99.90
2022-08-03T07:28:39.991Z,99.90
2022-08-03T07:31:11.886Z,99.90
2022-08-03T07:33:41.855Z,99.90
2022-08-03T07:36:11.026Z,99.90
2022-08-03T07:38:45.021Z,99.90
2022-08-03T07:41:22.698Z,99.90
2022-08-03T07:43:53.877Z,99.90
2022-08-03T07:46:26.643Z,99.90
2022-08-03T07:49:00.644Z,99.90
2022-08-03T07:51:35.834Z,99.90
2022-08-03T07:54:08.279Z,99.90
2022-08-03T07:56:41.406Z,99.90
2022-08-03T07:59:13.568Z,99.90
2022-08-03T08:01:45.688Z,99.90
2022-08-03T08:04:25.452Z,99.90
2022-08-03T08:06:59.046Z,99.90
2022-08-03T08:09:28.456Z,99.90
2022-08-03T08:12:03.136Z,99.90
2022-08-03T08:14:39.147Z,99.90
2022-08-03T08:17:12.149Z,99.90
2022-08-03T08:19:50.509Z,99.90
2022-08-03T08:22:30.545Z,99.90
2022-08-03T08:25:04.714Z,99.90
2022-08-03T08:28:30.931Z,99.90
2022-08-03T08:30:25.957Z,99.90
2022-08-03T08:33:01.242Z,99.90
2022-08-03T08:35:32.921Z,99.90
2022-08-03T08:38:06.649Z,99.90
2022-08-03T08:40:45.436Z,99.90
2022-08-03T08:43:14.934Z,99.90
2022-08-03T08:45:51.297Z,99.90
2022-08-03T08:48:25.052Z,99.90
2022-08-03T08:50:56.247Z,99.90
2022-08-03T08:53:30.542Z,99.90
2022-08-03T08:56:09.664Z,99.90
2022-08-03T08:58:46.873Z,99.90
2022-08-03T09:01:20.984Z,99.90
2022-08-03T09:03:55.391Z,99.90
2022-08-03T09:06:25.753Z,99.90
2022-08-03T09:08:55.160Z,99.90
2022-08-03T09:11:52.458Z,99.90
2022-08-03T09:14:34.407Z,99.90
2022-08-03T09:17:17.592Z,99.90
2022-08-03T09:20:08.250Z,99.90
2022-08-03T09:22:54.811Z,99.90
2022-08-03T09:25:30.090Z,99.90
2022-08-03T09:28:52.547Z,99.90
2022-08-03T09:31:13.077Z,99.90
2022-08-03T09:33:51.339Z,99.90
2022-08-03T09:36:40.552Z,99.90
2022-08-03T09:39:14.765Z,99.90
2022-08-03T09:41:55.427Z,99.90
2022-08-03T09:44:46.070Z,99.90
2022-08-03T09:47:31.312Z,99.90
2022-08-03T09:50:06.836Z,99.90
2022-08-03T09:52:52.263Z,99.90
2022-08-03T09:56:33.541Z,99.90
2022-08-03T09:58:27.490Z,99.90
2022-08-03T10:01:05.231Z,99.90
2022-08-03T10:04:03.372Z,99.90
2022-08-03T10:06:33.020Z,99.90
2022-08-03T10:09:15.255Z,99.90
2022-08-03T10:11:49.945Z,99.90
2022-08-03T10:14:30.741Z,99.90
2022-08-03T10:17:03.266Z,99.90
2022-08-03T10:19:48.627Z,99.90
2022-08-03T10:22:26.431Z,99.90
2022-08-03T10:25:01.507Z,99.90
2022-08-03T10:27:36.212Z,99.90
2022-08-03T10:30:15.669Z,99.90
2022-08-03T10:32:51.638Z,99.90
2022-08-03T10:35:24.883Z,99.90
2022-08-03T10:37:59.928Z,99.90
2022-08-03T10:43:26.089Z,99.90
2022-08-03T10:45:57.056Z,99.90
2022-08-03T10:48:32.458Z,99.90
2022-08-03T10:51:07.857Z,99.90
2022-08-03T10:53:54.762Z,99.90
2022-08-03T10:57:14.208Z,99.90
2022-08-03T11:00:10.102Z,99.90
2022-08-03T11:03:12.553Z,99.90
2022-08-03T11:05:56.715Z,99.90
2022-08-03T11:08:36.435Z,99.90
2022-08-03T11:11:30.604Z,99.90
2022-08-03T11:14:21.969Z,99.90
2022-08-03T11:17:14.489Z,99.90
2022-08-03T11:19:56.466Z,99.60
2022-08-03T11:22:31.166Z,99.40
2022-08-03T11:25:08.609Z,99.10
2022-08-03T11:28:39.217Z,99.40
2022-08-03T11:31:50.244Z,99.70
2022-08-03T11:34:28.539Z,99.40
2022-08-03T11:37:32.982Z,98.90
2022-08-03T11:40:03.464Z,99.40
2022-08-03T11:42:51.956Z,99.90
2022-08-03T11:45:25.070Z,99.60
2022-08-03T11:47:59.280Z,99.90
2022-08-03T11:50:28.554Z,99.00
2022-08-03T11:53:02.519Z,99.70
2022-08-03T11:55:39.389Z,99.50
2022-08-03T11:58:58.357Z,99.00
2022-08-03T12:01:14.329Z,98.80
2022-08-03T12:03:46.708Z,98.40
2022-08-03T12:06:22.591Z,98.20
2022-08-03T12:08:58.574Z,98.40
2022-08-03T12:11:29.536Z,98.60
2022-08-03T12:14:49.769Z,98.80
2022-08-03T12:17:03.865Z,99.10
2022-08-03T12:19:52.705Z,98.90
2022-08-03T12:22:38.193Z,98.50
2022-08-03T12:25:38.538Z,97.90
2022-08-03T12:28:28.206Z,98.20
2022-08-03T12:31:07.956Z,98.00
2022-08-03T12:34:12.656Z,98.40
2022-08-03T12:36:56.321Z,98.80
2022-08-03T12:39:32.378Z,97.40
2022-08-03T12:42:03.542Z,98.00
2022-08-03T12:44:38.337Z,97.00
2022-08-03T12:47:10.858Z,96.60
2022-08-03T12:49:52.020Z,96.40
2022-08-03T12:52:24.535Z,96.40
2022-08-03T12:55:01.265Z,96.30
2022-08-03T12:57:46.620Z,96.00
2022-08-03T13:00:29.087Z,96.00
2022-08-03T13:03:39.186Z,95.60
2022-08-03T13:06:03.442Z,95.70
2022-08-03T13:08:34.152Z,95.80
2022-08-03T13:11:23.599Z,95.90
2022-08-03T13:14:25.882Z,95.90
2022-08-03T13:16:58.157Z,96.40
2022-08-03T13:19:27.558Z,95.40
2022-08-03T13:22:04.733Z,95.90
2022-08-03T13:24:39.807Z,96.00
2022-08-03T13:28:00.988Z,96.30
2022-08-03T13:29:59.451Z,95.50
2022-08-03T13:32:37.788Z,95.70
2022-08-03T13:35:10.296Z,95.90
2022-08-03T13:37:43.421Z,95.90
2022-08-03T13:40:18.345Z,95.40
2022-08-03T13:42:47.625Z,95.00
2022-08-03T13:45:16.910Z,95.00
2022-08-03T13:47:54.707Z,95.30
2022-08-03T13:50:29.516Z,95.30
2022-08-03T13:53:01.915Z,94.80
2022-08-03T13:55:33.230Z,94.50
2022-08-03T13:58:08.398Z,94.60
2022-08-03T14:00:43.923Z,94.40
2022-08-03T14:03:15.273Z,94.40
2022-08-03T14:05:48.852Z,94.80
2022-08-03T14:08:23.530Z,94.70
2022-08-03T14:10:52.869Z,94.80
2022-08-03T14:13:27.729Z,94.80
2022-08-03T14:16:05.593Z,94.20
2022-08-03T14:18:41.772Z,93.40
2022-08-03T14:21:16.834Z,93.30
2022-08-03T14:23:55.118Z,93.70
2022-08-03T14:26:24.499Z,93.30
2022-08-03T14:28:57.272Z,93.20
2022-08-03T14:32:11.995Z,93.10
2022-08-03T14:34:23.104Z,93.20
2022-08-03T14:36:57.277Z,93.00
2022-08-03T14:42:28.956Z,91.90
2022-08-03T14:45:03.584Z,92.10
2022-08-03T14:50:10.230Z,92.10
2022-08-03T14:50:41.651Z,91.10
2022-08-03T14:53:20.936Z,91.80
2022-08-03T14:55:58.857Z,91.80
2022-08-03T14:58:30.180Z,92.50
2022-08-03T15:02:03.486Z,92.10
2022-08-03T15:04:01.861Z,91.30
2022-08-03T15:06:31.259Z,91.10
2022-08-03T15:09:22.471Z,90.50
2022-08-03T15:11:58.752Z,90.90
2022-08-03T15:14:33.225Z,90.80
2022-08-03T15:17:14.716Z,91.00
2022-08-03T15:20:03.089Z,90.60
2022-08-03T15:22:37.159Z,90.70
2022-08-03T15:26:29.209Z,90.30
2022-08-03T15:28:03.445Z,89.70
2022-08-03T15:30:44.722Z,88.70
2022-08-03T15:33:16.524Z,87.90
2022-08-03T15:35:46.924Z,88.40
2022-08-03T15:38:22.940Z,87.80
2022-08-03T15:40:58.772Z,87.50
2022-08-03T15:43:30.343Z,87.30
2022-08-03T15:46:28.658Z,87.80
2022-08-03T15:49:01.059Z,88.00
2022-08-03T15:51:30.460Z,87.80
2022-08-03T15:54:00.119Z,87.40
2022-08-03T15:56:29.629Z,88.10
2022-08-03T15:59:13.263Z,88.00
2022-08-03T16:01:46.170Z,87.80
2022-08-03T16:04:16.312Z,86.70
2022-08-03T16:06:48.958Z,86.30
2022-08-03T16:09:42.023Z,85.60
2022-08-03T16:12:18.123Z,85.00
2022-08-03T16:14:53.416Z,85.70
2022-08-03T16:17:26.760Z,85.30
2022-08-03T16:20:07.473Z,84.40
2022-08-03T16:22:56.204Z,84.80
2022-08-03T16:25:32.531Z,84.70
2022-08-03T16:28:07.722Z,84.40
2022-08-03T16:30:45.625Z,82.60
2022-08-03T16:33:16.992Z,83.90
2022-08-03T16:35:49.942Z,83.30
2022-08-03T16:38:19.699Z,82.20
2022-08-03T16:40:52.333Z,81.60
2022-08-03T16:43:31.112Z,81.50
2022-08-03T16:46:09.030Z,82.20
2022-08-03T16:48:41.319Z,82.00
2022-08-03T16:51:11.314Z,81.50
2022-08-03T16:54:05.422Z,82.60
2022-08-03T16:56:39.645Z,82.50
2022-08-03T16:59:15.416Z,82.20
2022-08-03T17:01:48.236Z,83.90
2022-08-03T17:04:20.690Z,82.10
2022-08-03T17:06:55.611Z,82.20
2022-08-03T17:09:25.373Z,82.90
2022-08-03T17:11:57.894Z,82.70
2022-08-03T17:14:35.586Z,83.30
2022-08-03T17:17:16.681Z,84.30
2022-08-03T17:19:54.229Z,84.80
2022-08-03T17:22:29.820Z,84.30
2022-08-03T17:25:08.470Z,83.30
2022-08-03T17:28:51.174Z,83.90
2022-08-03T17:30:57.432Z,84.00
2022-08-03T17:33:35.576Z,85.20
2022-08-03T17:36:08.114Z,86.20
2022-08-03T17:38:43.517Z,88.10
2022-08-03T17:41:17.250Z,89.10
2022-08-03T17:44:17.616Z,88.80
2022-08-03T17:46:46.761Z,89.70
2022-08-03T17:49:24.755Z,89.00
2022-08-03T17:52:03.008Z,89.80
2022-08-03T17:55:56.942Z,89.60
2022-08-03T17:58:02.721Z,90.00
2022-08-03T18:00:51.567Z,89.80
2022-08-03T18:03:26.802Z,90.30
2022-08-03T18:06:11.342Z,90.20
2022-08-03T18:08:53.819Z,90.60
2022-08-03T18:11:35.488Z,90.70
2022-08-03T18:14:16.355Z,91.20
2022-08-03T18:16:48.365Z,91.10
2022-08-03T18:19:20.881Z,91.10
2022-08-03T18:22:12.244Z,91.40
2022-08-03T18:24:46.199Z,91.80
2022-08-03T18:27:20.298Z,92.30
2022-08-03T18:29:51.964Z,92.60
2022-08-03T18:32:26.667Z,92.80
2022-08-03T18:35:02.428Z,92.90
2022-08-03T18:37:51.946Z,93.10
2022-08-03T18:40:30.613Z,93.50
2022-08-03T18:43:07.956Z,94.10
2022-08-03T18:45:57.614Z,94.50
2022-08-03T18:48:46.370Z,95.00
2022-08-03T18:51:28.687Z,95.60
2022-08-03T18:54:59.119Z,96.50
2022-08-03T18:57:14.438Z,96.70
2022-08-03T18:59:57.334Z,97.00
2022-08-03T19:02:36.746Z,97.60
2022-08-03T19:05:11.559Z,97.70
2022-08-03T19:07:58.299Z,98.20
2022-08-03T19:10:35.808Z,99.10
2022-08-03T19:13:14.008Z,99.80
2022-08-03T19:15:54.531Z,99.90
2022-08-03T19:21:30.306Z,99.90
2022-08-03T19:24:10.396Z,99.90
2022-08-03T19:26:43.270Z,99.90
2022-08-03T19:29:22.279Z,99.90
2022-08-03T19:31:59.501Z,99.90
2022-08-03T19:34:42.438Z,99.90
2022-08-03T19:37:22.050Z,99.90
2022-08-03T19:39:56.760Z,99.90
2022-08-03T19:42:48.097Z,99.90
2022-08-03T19:45:24.384Z,99.90
2022-08-03T19:48:17.485Z,99.90
2022-08-03T19:50:47.605Z,99.90
2022-08-03T19:53:21.701Z,99.90
2022-08-03T19:55:58.767Z,99.90
2022-08-03T19:58:38.375Z,99.90
2022-08-03T20:01:19.458Z,99.90
2022-08-03T20:03:54.621Z,99.90
2022-08-03T20:06:27.228Z,99.90
2022-08-03T20:08:59.674Z,99.90
2022-08-03T20:11:32.141Z,99.90
2022-08-03T20:17:12.720Z,99.90
2022-08-03T20:19:52.840Z,99.90
2022-08-03T20:22:33.356Z,99.90
2022-08-03T20:25:11.225Z,99.90
2022-08-03T20:28:07.837Z,99.90
2022-08-03T20:30:47.460Z,99.90
2022-08-03T20:33:27.879Z,99.90
2022-08-03T20:36:18.443Z,99.90
2022-08-03T20:38:57.628Z,99.90
2022-08-03T20:41:27.736Z,99.90
2022-08-03T20:44:02.542Z,99.90
2022-08-03T20:46:53.293Z,99.90
2022-08-03T20:49:45.800Z,99.90
2022-08-03T20:52:18.818Z,99.90
2022-08-03T20:54:50.799Z,99.90
2022-08-03T20:57:33.195Z,99.90
2022-08-03T21:00:09.403Z,99.90
2022-08-03T21:02:46.895Z,99.90
2022-08-03T21:05:47.628Z,99.90
2022-08-03T21:08:17.338Z,99.90
2022-08-03T21:10:49.387Z,99.90
2022-08-03T21:13:10.857Z,99.90
2022-08-03T21:13:25.190Z,99.90
2022-08-03T21:16:06.065Z,99.90
2022-08-03T21:18:55.619Z,99.90
2022-08-03T21:21:27.962Z,99.90
2022-08-03T21:24:09.781Z,99.90
2022-08-03T21:26:42.194Z,99.90
2022-08-03T21:29:17.952Z,99.90
2022-08-03T21:31:53.350Z,99.90
2022-08-03T21:34:30.913Z,99.90
2022-08-03T21:37:03.334Z,99.90
2022-08-03T21:39:36.987Z,99.90
2022-08-03T21:42:21.697Z,99.90
2022-08-03T21:44:54.459Z,99.90
2022-08-03T21:47:28.049Z,99.90
2022-08-03T21:50:09.834Z,99.90
2022-08-03T21:52:43.768Z,99.90
2022-08-03T21:55:18.176Z,99.90
2022-08-03T21:58:01.535Z,99.90
2022-08-03T22:00:31.131Z,99.90
2022-08-03T22:03:15.245Z,99.90
2022-08-03T22:05:49.221Z,99.90
2022-08-03T22:08:24.709Z,99.90
2022-08-03T22:10:59.518Z,99.90
2022-08-03T22:13:44.209Z,99.90
2022-08-03T22:16:17.403Z,99.90
2022-08-03T22:18:51.845Z,99.90
2022-08-03T22:21:36.105Z,99.90
2022-08-03T22:24:12.242Z,99.90
2022-08-03T22:27:03.239Z,99.90
2022-08-03T22:29:35.403Z,99.90
2022-08-03T22:32:08.170Z,99.90
2022-08-03T22:34:41.416Z,99.90
2022-08-03T22:37:20.400Z,99.90
2022-08-03T22:39:52.102Z,99.90
2022-08-03T22:42:28.218Z,99.90
2022-08-03T22:45:01.829Z,99.90
2022-08-03T22:47:39.542Z,99.90
2022-08-03T22:50:31.356Z,99.90
2022-08-03T22:53:05.312Z,99.90
2022-08-03T22:55:35.195Z,99.90
2022-08-03T22:58:09.544Z,99.90
2022-08-03T23:00:54.092Z,99.90
2022-08-03T23:03:25.423Z,99.90
2022-08-03T23:06:16.251Z,99.90
2022-08-03T23:08:53.089Z,99.90
2022-08-03T23:11:33.055Z,99.90
2022-08-03T23:14:12.550Z,99.90
2022-08-03T23:16:43.740Z,99.90
2022-08-03T23:19:25.878Z,99.90
2022-08-03T23:22:03.864Z,99.90
2022-08-03T23:24:39.067Z,99.90
2022-08-03T23:27:09.670Z,99.90
2022-08-03T23:29:47.225Z,99.90
2022-08-03T23:32:19.993Z,99.90
2022-08-03T23:35:11.356Z,99.90
2022-08-03T23:38:04.675Z,99.90
2022-08-03T23:40:38.841Z,99.90
2022-08-03T23:43:13.779Z,99.90
2022-08-03T23:46:10.340Z,99.90
2022-08-03T23:48:39.686Z,99.90
2022-08-03T23:51:15.211Z,99.90
2022-08-03T23:54:00.109Z,99.90
2022-08-03T23:56:45.216Z,99.90
2022-08-03T23:59:24.464Z,99.90
